Seago Piraeus — OXVD2 — position and weather

sailwx.info

Track history (hours):
 
Tides and Currents Weather Stations Pressure Air Temp Water Temp Dewpoint Dewpoint Depression Visibility Wind Speed Wind Dir Waves Ship Positions

Seago Piraeus

Last reported at 2014-Oct-31 20:21 UTC. Time now 2014-Oct-31 23:08 UTC.
Position N 39°44' E 025°46'.

Length 294 m; draft 11.5 m.

Type: Ship (hazmat cat A). MMSI: 219117000.

Date/timePositionNaut miles runAvg speedWind from/ knotsBaromVisibWave heightAir tempDewpointWater temp
2014-Oct-31 20:21N 39°44' E 025°46'1714.0
2014-Oct-31 19:06N 39°59' E 025°57'12810.8
2014-Oct-31 07:14N 40°26' E 028°40'1412.7
2014-Oct-31 06:08N 40°25' E 028°59'5 0.3
2014-Oct-30 14:27N 40°25' E 029°05'13 6.2
2014-Oct-30 12:20N 40°27' E 028°48'19 9.8
2014-Oct-30 10:23N 40°46' E 028°43'910.9
2014-Oct-30 09:33N 40°55' E 028°42'3 0.3
2014-Oct-29 22:22N 40°58' E 028°41'1 0.1
2014-Oct-29 07:12N 40°57' E 028°41'4 6.5
2014-Oct-29 06:33N 40°52' E 028°42'9 7.6
2014-Oct-29 05:20N 40°44' E 028°47'6 7.1
2014-Oct-29 04:33N 40°45' E 028°55'6 6.1
2014-Oct-29 03:33N 40°45' E 029°03'6 6.2
2014-Oct-29 02:33N 40°45' E 029°11'6 6.5
2014-Oct-29 01:33N 40°45' E 029°19'10 9.5
2014-Oct-29 00:33N 40°45' E 029°32'8 7.6
2014-Oct-28 23:28N 40°46' E 029°43'0 0.0
2014-Oct-28 21:19N 40°46' E 029°43'0 0.0
2014-Oct-28 20:31N 40°46' E 029°43'0 0.0
2014-Oct-28 18:31N 40°46' E 029°43'0 0.0
2014-Oct-28 17:13N 40°46' E 029°43'7 0.6
2014-Oct-28 04:27N 40°45' E 029°33'9 9.9
2014-Oct-28 03:33N 40°43' E 029°22'1110.9
2014-Oct-28 02:33N 40°43' E 029°07'1312.8
2014-Oct-28 01:33N 40°44' E 028°50'235 8.4
2014-Oct-26 21:27N 38°18' E 024°52'2411.7
2014-Oct-26 19:26N 37°57' E 024°37'1011.2
2014-Oct-26 18:33N 37°50' E 024°29'1412.4
2014-Oct-26 17:27N 37°41' E 024°15'1011.7
2014-Oct-26 16:33N 37°35' E 024°05'1512.6
2014-Oct-26 15:22N 37°37' E 023°46'1113.0
2014-Oct-26 14:33N 37°46' E 023°39'1111.0
2014-Oct-26 13:33N 37°57' E 023°36'0 0.4
2014-Oct-26 12:33N 37°57' E 023°36'0 0.0
2014-Oct-26 11:33N 37°57' E 023°36'0 0.0
2014-Oct-26 10:33N 37°57' E 023°36'0 0.0
2014-Oct-26 09:33N 37°57' E 023°36'0 0.0
2014-Oct-26 08:33N 37°57' E 023°36'0 0.0
2014-Oct-26 07:33N 37°57' E 023°36'0 0.0
2014-Oct-26 06:33N 37°57' E 023°36'1 0.5
2014-Oct-26 05:33N 37°57' E 023°36'4 4.2
2014-Oct-26 04:33N 37°53' E 023°37'7 7.4
2014-Oct-26 03:33N 37°46' E 023°42'1110.9
2014-Oct-26 02:33N 37°35' E 023°44'3011.8
2014-Oct-26 00:00N 37°06' E 023°36'13411.2 030 / 181013.910.8 1.519.011.821.0
2014-Oct-25 12:00N 36°18' E 021°00'10214.5 310 / 141012.110.8 2.020.013.023.0
2014-Oct-25 05:00N 36°24' E 018°54'6813.5 280 / 141011.810.8 1.519.611.323.0
2014-Oct-25 00:00N 36°24' E 017°30'26313.8 300 / 121011.810.8 1.020.010.923.0
2014-Oct-24 05:00N 37°06' E 012°06'7414.8 330 / 221008.310.8 2.519.011.822.0
2014-Oct-24 00:00N 37°24' E 010°36'10317.1 310 / 301010.410.8 3.519.013.821.0
2014-Oct-23 18:00N 37°48' E 008°30'6410.7 320 / 331012.110.8 4.520.013.022.0
2014-Oct-23 12:00N 38°06' E 007°12'8213.7 320 / 331016.4 5.4 4.022.017.223.0
2014-Oct-23 06:00N 38°24' E 005°30'7712.9 330 / 241019.710.8 2.519.812.822.0
2014-Oct-23 00:00N 38°42' E 003°54'10114.4 330 / 121022.410.8 1.520.019.223.0
2014-Oct-22 17:00N 39°06' E 001°48'9314.4 160 / 121023.510.8 2.021.821.322.0
2014-Oct-22 10:33N 39°24' W 000°10'7 7.3
2014-Oct-22 09:33N 39°26' W 000°19'0 0.0
2014-Oct-22 08:33N 39°26' W 000°19'0 0.0
2014-Oct-22 07:33N 39°26' W 000°19'0 0.0
2014-Oct-22 06:33N 39°26' W 000°19'0 0.0
2014-Oct-22 05:33N 39°26' W 000°19'0 0.0
2014-Oct-22 04:33N 39°26' W 000°19'0 0.0
2014-Oct-22 03:33N 39°26' W 000°19'0 0.0
2014-Oct-22 02:33N 39°26' W 000°19'0 0.0
2014-Oct-22 01:33N 39°26' W 000°19'0 0.0
2014-Oct-22 00:33N 39°26' W 000°19'0 0.0
2014-Oct-21 23:33N 39°26' W 000°19'0 0.0
2014-Oct-21 22:33N 39°26' W 000°19'0 0.0
2014-Oct-21 21:33N 39°26' W 000°19'0 0.0
2014-Oct-21 20:33N 39°26' W 000°19'  
Track history (hours):
 
Tides and Currents Weather Stations Pressure Air Temp Water Temp Dewpoint Dewpoint Depression Visibility Wind Speed Wind Dir Waves Ship Positions

Seago Piraeus

Last reported at 2014-Oct-31 20:21 UTC. Time now 2014-Oct-31 23:08 UTC.
Position N 39°44' E 025°46'.

Length 294 m; draft 11.5 m.

Type: Ship (hazmat cat A). MMSI: 219117000.

Date/timePositionNaut miles runAvg speedWind from/ knotsBaromVisibWave heightAir tempDewpointWater temp
2014-Oct-31 20:21N 39°44' E 025°46'1714.0
2014-Oct-31 19:06N 39°59' E 025°57'12810.8
2014-Oct-31 07:14N 40°26' E 028°40'1412.7
2014-Oct-31 06:08N 40°25' E 028°59'5 0.3
2014-Oct-30 14:27N 40°25' E 029°05'13 6.2
2014-Oct-30 12:20N 40°27' E 028°48'19 9.8
2014-Oct-30 10:23N 40°46' E 028°43'910.9
2014-Oct-30 09:33N 40°55' E 028°42'3 0.3
2014-Oct-29 22:22N 40°58' E 028°41'1 0.1
2014-Oct-29 07:12N 40°57' E 028°41'4 6.5
2014-Oct-29 06:33N 40°52' E 028°42'9 7.6
2014-Oct-29 05:20N 40°44' E 028°47'6 7.1
2014-Oct-29 04:33N 40°45' E 028°55'6 6.1
2014-Oct-29 03:33N 40°45' E 029°03'6 6.2
2014-Oct-29 02:33N 40°45' E 029°11'6 6.5
2014-Oct-29 01:33N 40°45' E 029°19'10 9.5
2014-Oct-29 00:33N 40°45' E 029°32'8 7.6
2014-Oct-28 23:28N 40°46' E 029°43'0 0.0
2014-Oct-28 21:19N 40°46' E 029°43'0 0.0
2014-Oct-28 20:31N 40°46' E 029°43'0 0.0
2014-Oct-28 18:31N 40°46' E 029°43'0 0.0
2014-Oct-28 17:13N 40°46' E 029°43'7 0.6
2014-Oct-28 04:27N 40°45' E 029°33'9 9.9
2014-Oct-28 03:33N 40°43' E 029°22'1110.9
2014-Oct-28 02:33N 40°43' E 029°07'1312.8
2014-Oct-28 01:33N 40°44' E 028°50'235 8.4
2014-Oct-26 21:27N 38°18' E 024°52'2411.7
2014-Oct-26 19:26N 37°57' E 024°37'1011.2
2014-Oct-26 18:33N 37°50' E 024°29'1412.4
2014-Oct-26 17:27N 37°41' E 024°15'1011.7
2014-Oct-26 16:33N 37°35' E 024°05'1512.6
2014-Oct-26 15:22N 37°37' E 023°46'1113.0
2014-Oct-26 14:33N 37°46' E 023°39'1111.0
2014-Oct-26 13:33N 37°57' E 023°36'0 0.4
2014-Oct-26 12:33N 37°57' E 023°36'0 0.0
2014-Oct-26 11:33N 37°57' E 023°36'0 0.0
2014-Oct-26 10:33N 37°57' E 023°36'0 0.0
2014-Oct-26 09:33N 37°57' E 023°36'0 0.0
2014-Oct-26 08:33N 37°57' E 023°36'0 0.0
2014-Oct-26 07:33N 37°57' E 023°36'0 0.0
2014-Oct-26 06:33N 37°57' E 023°36'1 0.5
2014-Oct-26 05:33N 37°57' E 023°36'4 4.2
2014-Oct-26 04:33N 37°53' E 023°37'7 7.4
2014-Oct-26 03:33N 37°46' E 023°42'1110.9
2014-Oct-26 02:33N 37°35' E 023°44'3011.8
2014-Oct-26 00:00N 37°06' E 023°36'13411.2 030 / 181013.910.8 1.519.011.821.0
2014-Oct-25 12:00N 36°18' E 021°00'10214.5 310 / 141012.110.8 2.020.013.023.0
2014-Oct-25 05:00N 36°24' E 018°54'6813.5 280 / 141011.810.8 1.519.611.323.0
2014-Oct-25 00:00N 36°24' E 017°30'26313.8 300 / 121011.810.8 1.020.010.923.0
2014-Oct-24 05:00N 37°06' E 012°06'7414.8 330 / 221008.310.8 2.519.011.822.0
2014-Oct-24 00:00N 37°24' E 010°36'10317.1 310 / 301010.410.8 3.519.013.821.0
2014-Oct-23 18:00N 37°48' E 008°30'6410.7 320 / 331012.110.8 4.520.013.022.0
2014-Oct-23 12:00N 38°06' E 007°12'8213.7 320 / 331016.4 5.4 4.022.017.223.0
2014-Oct-23 06:00N 38°24' E 005°30'7712.9 330 / 241019.710.8 2.519.812.822.0
2014-Oct-23 00:00N 38°42' E 003°54'10114.4 330 / 121022.410.8 1.520.019.223.0
2014-Oct-22 17:00N 39°06' E 001°48'9314.4 160 / 121023.510.8 2.021.821.322.0
2014-Oct-22 10:33N 39°24' W 000°10'7 7.3
2014-Oct-22 09:33N 39°26' W 000°19'0 0.0
2014-Oct-22 08:33N 39°26' W 000°19'0 0.0
2014-Oct-22 07:33N 39°26' W 000°19'0 0.0
2014-Oct-22 06:33N 39°26' W 000°19'0 0.0
2014-Oct-22 05:33N 39°26' W 000°19'0 0.0
2014-Oct-22 04:33N 39°26' W 000°19'0 0.0
2014-Oct-22 03:33N 39°26' W 000°19'0 0.0
2014-Oct-22 02:33N 39°26' W 000°19'0 0.0
2014-Oct-22 01:33N 39°26' W 000°19'0 0.0
2014-Oct-22 00:33N 39°26' W 000°19'0 0.0
2014-Oct-21 23:33N 39°26' W 000°19'0 0.0
2014-Oct-21 22:33N 39°26' W 000°19'0 0.0
2014-Oct-21 21:33N 39°26' W 000°19'0 0.0
2014-Oct-21 20:33N 39°26' W 000°19'  

Dump ship's entire track history